Time;durP1;ratioP1;P1;durP2;ratioP2;P2;SDS_P1;SDS_P2;PMS_P1;PMS_P2;Temp;Humidity;BMP_temperature;BMP_pressure;BME280_temperature;BME280_humidity;BME280_pressure;Samples;Min_cycle;Max_cycle;Signal;HPM_P1;HPM_P2
2022/08/13 00:01:08;;;;;;;1.47;1.43;;;;;;;;;;5098736;28;20286;-62
2022/08/13 00:03:55;;;;;;;1.70;1.60;;;;;;;;;;5098742;28;20211;-62
2022/08/13 00:07:04;;;;;;;2.00;1.53;;;;;;;;;;5099811;28;20230;-62
2022/08/13 00:09:51;;;;;;;1.57;1.57;;;;;;;;;;5099250;28;20233;-62
2022/08/13 00:12:57;;;;;;;1.40;1.40;;;;;;;;;;5103736;28;20215;-62
2022/08/13 00:15:47;;;;;;;1.53;1.53;;;;;;;;;;5097044;28;20213;-62
2022/08/13 00:18:37;;;;;;;1.60;1.60;;;;;;;;;;5099427;27;20250;-62
2022/08/13 00:21:25;;;;;;;1.30;1.30;;;;;;;;;;5098262;28;20213;-62
2022/08/13 00:24:12;;;;;;;1.37;1.37;;;;;;;;;;5094688;28;20717;-62
2022/08/13 00:26:59;;;;;;;1.47;1.47;;;;;;;;;;5103596;28;20210;-62
2022/08/13 00:29:46;;;;;;;1.63;1.63;;;;;;;;;;5101698;28;20609;-62
2022/08/13 00:32:35;;;;;;;1.57;1.50;;;;;;;;;;5101727;28;20208;-62
2022/08/13 00:35:22;;;;;;;1.47;1.40;;;;;;;;;;5097588;28;20216;-62
2022/08/13 00:38:09;;;;;;;1.50;1.50;;;;;;;;;;5098908;28;20599;-63
2022/08/13 00:40:59;;;;;;;1.50;1.50;;;;;;;;;;5097933;28;20210;-62
2022/08/13 00:43:46;;;;;;;1.97;1.87;;;;;;;;;;5099531;28;20211;-62
2022/08/13 00:46:34;;;;;;;1.80;1.70;;;;;;;;;;5097567;28;20256;-62
2022/08/13 00:49:21;;;;;;;1.90;1.70;;;;;;;;;;5101050;28;20208;-62
2022/08/13 00:52:10;;;;;;;1.73;1.70;;;;;;;;;;5097320;28;20286;-62
2022/08/13 00:54:59;;;;;;;2.00;1.80;;;;;;;;;;5098802;28;20674;-62
2022/08/13 00:57:48;;;;;;;1.70;1.60;;;;;;;;;;5094653;28;20577;-63
2022/08/13 01:00:36;;;;;;;1.80;1.70;;;;;;;;;;5100325;28;20237;-62
2022/08/13 01:03:23;;;;;;;1.80;1.70;;;;;;;;;;5096707;28;20218;-62
2022/08/13 01:06:12;;;;;;;1.63;1.57;;;;;;;;;;5099099;28;20609;-62
2022/08/13 01:08:59;;;;;;;1.90;1.80;;;;;;;;;;5095860;28;20256;-62
2022/08/13 01:11:47;;;;;;;1.73;1.70;;;;;;;;;;5099172;28;20214;-63
2022/08/13 01:14:35;;;;;;;1.67;1.67;;;;;;;;;;5094961;28;20569;-62
2022/08/13 01:17:23;;;;;;;1.50;1.50;;;;;;;;;;5097604;28;20202;-62
2022/08/13 01:20:14;;;;;;;1.73;1.73;;;;;;;;;;5098075;28;21176;-62
2022/08/13 01:23:04;;;;;;;1.40;1.40;;;;;;;;;;5103432;28;20212;-62
2022/08/13 01:25:54;;;;;;;1.50;1.50;;;;;;;;;;5099541;28;20206;-62
2022/08/13 01:28:41;;;;;;;1.67;1.57;;;;;;;;;;5104499;28;20205;-62
2022/08/13 01:31:28;;;;;;;1.60;1.60;;;;;;;;;;5099716;28;20205;-62
2022/08/13 01:34:16;;;;;;;1.80;1.70;;;;;;;;;;5099144;28;20210;-62
2022/08/13 01:37:03;;;;;;;1.80;1.77;;;;;;;;;;5099986;28;20199;-62
2022/08/13 01:39:52;;;;;;;1.60;1.50;;;;;;;;;;5099827;28;20230;-62
2022/08/13 01:42:42;;;;;;;1.37;1.37;;;;;;;;;;5100880;28;20702;-62
2022/08/13 01:45:31;;;;;;;1.70;1.70;;;;;;;;;;5097068;28;20201;-62
2022/08/13 01:51:29;;;;;;;1.40;1.40;;;;;;;;;;5096026;28;20486;-62
2022/08/13 01:54:17;;;;;;;1.50;1.40;;;;;;;;;;5101226;28;20339;-62
2022/08/13 01:57:07;;;;;;;1.60;1.60;;;;;;;;;;5102631;28;20211;-63
2022/08/13 01:59:54;;;;;;;1.57;1.47;;;;;;;;;;5097210;28;20266;-62
2022/08/13 02:02:43;;;;;;;1.53;1.53;;;;;;;;;;5101461;28;20291;-62
2022/08/13 02:05:30;;;;;;;1.73;1.73;;;;;;;;;;5100877;28;20228;-62
2022/08/13 02:08:22;;;;;;;1.50;1.50;;;;;;;;;;5096085;28;20212;-62
2022/08/13 02:11:10;;;;;;;1.47;1.47;;;;;;;;;;5096630;28;20768;-62
2022/08/13 02:13:59;;;;;;;1.70;1.60;;;;;;;;;;5094418;28;20715;-62
2022/08/13 02:16:46;;;;;;;1.23;1.23;;;;;;;;;;5100772;28;20214;-62
2022/08/13 02:19:34;;;;;;;1.47;1.47;;;;;;;;;;5093945;28;20229;-62
2022/08/13 02:22:22;;;;;;;1.57;1.57;;;;;;;;;;5093947;28;20347;-62
2022/08/13 02:25:12;;;;;;;1.50;1.50;;;;;;;;;;5098066;28;20244;-62
2022/08/13 02:27:59;;;;;;;1.80;1.70;;;;;;;;;;5098250;28;20203;-62
2022/08/13 02:30:49;;;;;;;1.40;1.40;;;;;;;;;;5097906;28;20202;-62
2022/08/13 02:33:37;;;;;;;1.47;1.47;;;;;;;;;;5099351;28;20553;-62
2022/08/13 02:36:25;;;;;;;1.37;1.37;;;;;;;;;;5100271;28;20677;-62
2022/08/13 02:39:12;;;;;;;1.80;1.70;;;;;;;;;;5100220;28;20215;-62
2022/08/13 02:41:58;;;;;;;1.40;1.40;;;;;;;;;;5100803;28;20736;-62
2022/08/13 02:44:47;;;;;;;1.43;1.43;;;;;;;;;;5102718;28;20220;-62
2022/08/13 02:47:36;;;;;;;1.47;1.47;;;;;;;;;;5102096;28;20198;-62
2022/08/13 02:50:24;;;;;;;1.43;1.43;;;;;;;;;;5099496;28;20278;-62
2022/08/13 02:53:13;;;;;;;1.90;1.60;;;;;;;;;;5102715;28;20305;-62
2022/08/13 02:56:00;;;;;;;1.37;1.37;;;;;;;;;;5109196;28;20207;-62
2022/08/13 02:58:47;;;;;;;1.80;1.70;;;;;;;;;;5100359;28;20248;-62
2022/08/13 03:01:35;;;;;;;1.30;1.30;;;;;;;;;;5101377;28;20216;-62
2022/08/13 03:04:23;;;;;;;1.43;1.40;;;;;;;;;;5100478;28;20561;-62
2022/08/13 03:07:10;;;;;;;1.60;1.50;;;;;;;;;;5102257;28;20705;-62
2022/08/13 03:09:57;;;;;;;1.30;1.30;;;;;;;;;;5103885;28;20239;-62
2022/08/13 03:12:48;;;;;;;1.57;1.57;;;;;;;;;;5104485;28;20611;-62
2022/08/13 03:15:36;;;;;;;1.30;1.30;;;;;;;;;;5102014;28;20283;-62
2022/08/13 03:18:24;;;;;;;1.50;1.50;;;;;;;;;;5099982;28;20194;-62
2022/08/13 03:21:16;;;;;;;1.30;1.30;;;;;;;;;;5102334;28;20225;-62
2022/08/13 03:24:05;;;;;;;1.60;1.60;;;;;;;;;;5101760;28;20223;-62
2022/08/13 03:26:52;;;;;;;1.40;1.40;;;;;;;;;;5099422;28;20627;-62
2022/08/13 03:29:39;;;;;;;1.47;1.47;;;;;;;;;;5101657;28;20389;-62
2022/08/13 03:32:26;;;;;;;1.63;1.60;;;;;;;;;;5102899;28;20206;-62
2022/08/13 03:35:15;;;;;;;1.60;1.60;;;;;;;;;;5099531;28;20270;-62
2022/08/13 03:38:05;;;;;;;1.40;1.40;;;;;;;;;;5101886;28;20205;-62
2022/08/13 03:41:11;;;;;;;1.70;1.60;;;;;;;;;;5100130;28;20657;-62
2022/08/13 03:43:59;;;;;;;1.50;1.40;;;;;;;;;;5095137;28;20291;-62
2022/08/13 03:46:47;;;;;;;1.33;1.33;;;;;;;;;;5105472;28;20258;-62
2022/08/13 03:49:37;;;;;;;1.50;1.50;;;;;;;;;;5099732;28;20209;-63
2022/08/13 03:52:24;;;;;;;1.40;1.40;;;;;;;;;;5102033;28;20230;-62
2022/08/13 03:55:15;;;;;;;1.50;1.50;;;;;;;;;;5103814;28;20310;-62
2022/08/13 03:58:02;;;;;;;1.80;1.80;;;;;;;;;;5097226;28;20576;-62
2022/08/13 04:00:49;;;;;;;1.33;1.33;;;;;;;;;;5099142;28;20357;-62
2022/08/13 04:03:40;;;;;;;1.60;1.60;;;;;;;;;;5101054;28;20209;-62
2022/08/13 04:06:27;;;;;;;1.47;1.47;;;;;;;;;;5097434;28;20236;-62
2022/08/13 04:09:14;;;;;;;1.50;1.50;;;;;;;;;;5101143;28;20576;-62
2022/08/13 04:12:03;;;;;;;1.80;1.50;;;;;;;;;;5097850;28;20217;-62
2022/08/13 04:14:50;;;;;;;1.40;1.40;;;;;;;;;;5099935;28;20591;-62
2022/08/13 04:17:37;;;;;;;1.70;1.70;;;;;;;;;;5095179;28;20212;-62
2022/08/13 04:20:25;;;;;;;1.50;1.50;;;;;;;;;;5103982;28;20441;-62
2022/08/13 04:23:16;;;;;;;1.60;1.60;;;;;;;;;;5104724;28;20267;-62
2022/08/13 04:26:03;;;;;;;1.67;1.67;;;;;;;;;;5100373;28;20211;-62
2022/08/13 04:28:53;;;;;;;1.60;1.60;;;;;;;;;;5096396;28;20231;-62
2022/08/13 04:31:40;;;;;;;1.50;1.50;;;;;;;;;;5103466;28;20204;-62
2022/08/13 04:34:29;;;;;;;1.23;1.23;;;;;;;;;;5097340;28;20211;-64
2022/08/13 04:37:16;;;;;;;1.40;1.40;;;;;;;;;;5104160;28;20280;-62
2022/08/13 04:40:05;;;;;;;1.50;1.50;;;;;;;;;;5102685;28;20225;-62
2022/08/13 04:42:54;;;;;;;1.40;1.40;;;;;;;;;;5101416;28;20572;-62
2022/08/13 04:45:43;;;;;;;1.50;1.50;;;;;;;;;;5092133;28;20202;-62
2022/08/13 04:48:33;;;;;;;1.90;1.60;;;;;;;;;;5101280;28;20206;-62
2022/08/13 04:51:20;;;;;;;1.63;1.63;;;;;;;;;;5099121;28;20665;-62
2022/08/13 04:54:07;;;;;;;2.20;1.40;;;;;;;;;;5094745;28;20224;-62
2022/08/13 04:56:54;;;;;;;2.10;1.50;;;;;;;;;;5093904;28;20669;-62
2022/08/13 04:59:44;;;;;;;1.43;1.43;;;;;;;;;;5095733;28;20844;-61
2022/08/13 05:02:37;;;;;;;1.60;1.60;;;;;;;;;;5099357;28;20216;-62
2022/08/13 05:05:24;;;;;;;1.50;1.50;;;;;;;;;;5096125;28;20229;-62
2022/08/13 05:08:14;;;;;;;1.47;1.47;;;;;;;;;;5100469;28;20216;-62
2022/08/13 05:11:02;;;;;;;1.23;1.23;;;;;;;;;;5099367;28;20708;-62
2022/08/13 05:13:50;;;;;;;1.37;1.37;;;;;;;;;;5100402;28;20209;-62
2022/08/13 05:16:37;;;;;;;1.60;1.50;;;;;;;;;;5095421;28;20211;-62
2022/08/13 05:19:25;;;;;;;1.33;1.27;;;;;;;;;;5100512;28;20204;-62
2022/08/13 05:22:12;;;;;;;1.43;1.43;;;;;;;;;;5103954;28;20317;-62
2022/08/13 05:24:59;;;;;;;1.50;1.50;;;;;;;;;;5098290;28;20217;-62
2022/08/13 05:27:46;;;;;;;3.90;1.50;;;;;;;;;;5096635;28;20218;-62
2022/08/13 05:30:34;;;;;;;1.30;1.30;;;;;;;;;;5099346;28;20228;-62
2022/08/13 05:33:23;;;;;;;1.50;1.50;;;;;;;;;;5103690;28;20200;-62
2022/08/13 05:36:13;;;;;;;1.37;1.37;;;;;;;;;;5101163;28;20669;-62
2022/08/13 05:39:00;;;;;;;1.23;1.20;;;;;;;;;;5103215;28;20205;-62
2022/08/13 05:41:48;;;;;;;1.50;1.50;;;;;;;;;;5102179;28;20229;-62
2022/08/13 05:44:35;;;;;;;1.63;1.60;;;;;;;;;;5103056;28;20222;-63
2022/08/13 05:47:22;;;;;;;2.40;1.60;;;;;;;;;;5101515;28;20216;-62
2022/08/13 05:50:13;;;;;;;1.53;1.43;;;;;;;;;;5098239;28;20213;-62
2022/08/13 05:53:08;;;;;;;1.40;1.40;;;;;;;;;;5099718;28;20204;-62
2022/08/13 05:55:55;;;;;;;1.57;1.50;;;;;;;;;;5099583;28;20229;-63
2022/08/13 05:58:42;;;;;;;1.60;1.60;;;;;;;;;;5099495;28;20685;-62
2022/08/13 06:04:34;;;;;;;1.60;1.60;;;;;;;;;;5099427;28;20311;-62
2022/08/13 06:07:22;;;;;;;1.35;1.35;;;;;;;;;;5106992;28;20245;-64
2022/08/13 06:10:10;;;;;;;1.70;1.70;;;;;;;;;;5102834;28;20231;-62
2022/08/13 06:12:57;;;;;;;1.48;1.48;;;;;;;;;;5103865;28;20212;-62
2022/08/13 06:15:51;;;;;;;1.42;1.40;;;;;;;;;;5101905;28;20559;-64
2022/08/13 06:18:43;;;;;;;1.50;1.50;;;;;;;;;;5101749;28;20214;-62
2022/08/13 06:21:31;;;;;;;1.50;1.50;;;;;;;;;;5103439;28;20245;-62
2022/08/13 06:24:18;;;;;;;1.58;1.50;;;;;;;;;;5105746;28;20301;-63
2022/08/13 06:27:06;;;;;;;1.30;1.30;;;;;;;;;;5099884;28;20293;-62
2022/08/13 06:29:54;;;;;;;1.40;1.30;;;;;;;;;;5106810;28;20218;-62
2022/08/13 06:32:44;;;;;;;1.42;1.40;;;;;;;;;;5097534;28;20609;-62
2022/08/13 06:35:31;;;;;;;1.50;1.50;;;;;;;;;;5101467;28;20668;-63
2022/08/13 06:38:20;;;;;;;4.47;1.55;;;;;;;;;;5107741;28;20198;-62
2022/08/13 06:41:10;;;;;;;1.30;1.30;;;;;;;;;;5103193;28;20688;-62
2022/08/13 06:43:59;;;;;;;1.40;1.40;;;;;;;;;;5106194;28;20745;-63
2022/08/13 06:46:47;;;;;;;1.70;1.60;;;;;;;;;;5105147;28;20233;-64
2022/08/13 06:49:37;;;;;;;1.17;1.17;;;;;;;;;;5101393;28;20596;-63
2022/08/13 06:52:26;;;;;;;1.88;1.77;;;;;;;;;;5102141;28;20198;-63
2022/08/13 06:55:13;;;;;;;1.58;1.58;;;;;;;;;;5097424;28;20228;-62
2022/08/13 06:58:00;;;;;;;1.38;1.38;;;;;;;;;;5102269;28;20206;-63
2022/08/13 07:00:48;;;;;;;1.60;1.60;;;;;;;;;;5093153;28;20707;-62
2022/08/13 07:03:39;;;;;;;1.60;1.60;;;;;;;;;;5104405;28;20260;-63
2022/08/13 07:06:28;;;;;;;1.55;1.40;;;;;;;;;;5104733;28;20225;-63
2022/08/13 07:09:17;;;;;;;1.80;1.70;;;;;;;;;;5105846;28;20954;-60
2022/08/13 07:12:04;;;;;;;1.33;1.33;;;;;;;;;;5105361;28;20197;-61
2022/08/13 07:14:51;;;;;;;1.23;1.23;;;;;;;;;;5099922;28;20201;-60
2022/08/13 07:17:41;;;;;;;1.05;1.05;;;;;;;;;;5098540;28;20298;-60
2022/08/13 07:20:28;;;;;;;1.40;1.40;;;;;;;;;;5098830;28;20207;-60
2022/08/13 07:23:15;;;;;;;1.30;1.30;;;;;;;;;;5104361;28;20215;-61
2022/08/13 07:26:03;;;;;;;1.20;1.20;;;;;;;;;;5102235;28;20202;-61
2022/08/13 07:28:50;;;;;;;1.50;1.40;;;;;;;;;;5107651;28;20310;-61
2022/08/13 07:31:39;;;;;;;1.45;1.45;;;;;;;;;;5107207;28;20692;-62
2022/08/13 07:34:31;;;;;;;1.20;1.20;;;;;;;;;;5107923;28;20207;-61
2022/08/13 07:37:22;;;;;;;1.10;1.10;;;;;;;;;;5108689;28;20556;-61
2022/08/13 07:40:10;;;;;;;1.17;1.17;;;;;;;;;;5107793;28;20208;-62
2022/08/13 07:42:59;;;;;;;1.33;1.33;;;;;;;;;;5105217;28;20212;-62
2022/08/13 07:46:07;;;;;;;1.05;1.05;;;;;;;;;;5106610;28;20344;-62
2022/08/13 07:48:55;;;;;;;1.10;1.10;;;;;;;;;;5102086;28;20207;-64
2022/08/13 07:51:44;;;;;;;1.20;1.20;;;;;;;;;;5102940;28;20212;-64
2022/08/13 07:54:30;;;;;;;1.20;1.20;;;;;;;;;;5106528;28;20217;-61
2022/08/13 07:57:18;;;;;;;1.25;1.20;;;;;;;;;;5103297;28;20285;-62
2022/08/13 08:00:21;;;;;;;0.95;0.95;;;;;;;;;;5101674;28;20769;-64
2022/08/13 08:03:08;;;;;;;1.10;1.10;;;;;;;;;;5104749;28;20787;-62
2022/08/13 08:05:56;;;;;;;1.20;1.20;;;;;;;;;;5097179;28;20236;-62
2022/08/13 08:08:45;;;;;;;1.20;1.20;;;;;;;;;;5100550;28;20237;-62
2022/08/13 08:14:38;;;;;;;1.17;1.10;;;;;;;;;;5100211;28;20636;-62
2022/08/13 08:17:26;;;;;;;1.17;1.17;;;;;;;;;;5099532;28;20241;-62
2022/08/13 08:20:21;;;;;;;0.93;0.93;;;;;;;;;;5099039;28;20217;-62
2022/08/13 08:23:09;;;;;;;1.30;1.30;;;;;;;;;;5096451;28;20198;-62
2022/08/13 08:26:00;;;;;;;1.10;1.10;;;;;;;;;;5097044;28;20201;-62
2022/08/13 08:28:48;;;;;;;0.98;0.98;;;;;;;;;;5099275;28;20557;-62
2022/08/13 08:31:39;;;;;;;1.20;1.20;;;;;;;;;;5096478;28;20263;-62
2022/08/13 08:34:27;;;;;;;1.25;1.13;;;;;;;;;;5102663;28;20658;-62
2022/08/13 08:42:35;;;;;;;1.00;1.00;;;;;;;;;;5100220;28;20696;-62
2022/08/13 08:43:36;;;;;;;1.23;1.23;;;;;;;;;;5096173;28;20277;-59
2022/08/13 08:46:23;;;;;;;1.17;1.17;;;;;;;;;;5102373;28;20209;-60
2022/08/13 08:49:10;;;;;;;1.10;1.10;;;;;;;;;;5092641;28;20203;-60
2022/08/13 08:51:59;;;;;;;1.02;1.02;;;;;;;;;;5099726;28;20220;-60
2022/08/13 08:54:47;;;;;;;1.00;1.00;;;;;;;;;;5095606;28;20582;-60
2022/08/13 08:57:36;;;;;;;1.10;1.10;;;;;;;;;;5101305;28;20202;-60
2022/08/13 09:00:24;;;;;;;1.13;1.13;;;;;;;;;;5098892;28;20193;-60
2022/08/13 09:03:17;;;;;;;1.10;1.10;;;;;;;;;;5098592;28;20222;-61
2022/08/13 09:06:04;;;;;;;1.17;1.17;;;;;;;;;;5095748;28;20236;-60
2022/08/13 09:08:53;;;;;;;1.30;1.30;;;;;;;;;;5095902;28;20688;-60
2022/08/13 09:11:41;;;;;;;1.13;1.13;;;;;;;;;;5100072;28;20251;-61
2022/08/13 09:14:30;;;;;;;1.30;1.30;;;;;;;;;;5098626;28;20218;-61
2022/08/13 09:17:19;;;;;;;1.17;1.17;;;;;;;;;;5098355;28;20206;-61
2022/08/13 09:20:10;;;;;;;1.10;1.10;;;;;;;;;;5098221;28;20214;-60
2022/08/13 09:23:03;;;;;;;1.10;1.10;;;;;;;;;;5095419;28;20244;-61
2022/08/13 09:25:51;;;;;;;1.10;1.10;;;;;;;;;;5106747;28;20206;-61
2022/08/13 09:28:38;;;;;;;1.08;1.08;;;;;;;;;;5103050;28;20213;-61
2022/08/13 09:31:25;;;;;;;1.40;1.40;;;;;;;;;;5094180;28;20662;-61
2022/08/13 09:34:14;;;;;;;1.10;1.10;;;;;;;;;;5101893;28;20210;-61
2022/08/13 09:37:02;;;;;;;1.25;1.25;;;;;;;;;;5099260;28;20611;-61
2022/08/13 09:39:53;;;;;;;1.17;1.17;;;;;;;;;;5100708;28;20217;-60
2022/08/13 09:42:47;;;;;;;1.13;1.13;;;;;;;;;;5103146;28;20230;-61
2022/08/13 09:45:35;;;;;;;1.20;1.20;;;;;;;;;;5104976;28;20217;-61
2022/08/13 09:48:22;;;;;;;0.95;0.95;;;;;;;;;;5098038;28;20232;-61
2022/08/13 09:51:13;;;;;;;1.30;1.30;;;;;;;;;;5104457;28;20197;-61
2022/08/13 09:54:01;;;;;;;1.10;1.10;;;;;;;;;;5107040;28;20263;-61
2022/08/13 09:56:48;;;;;;;1.23;1.17;;;;;;;;;;5104943;28;20350;-62
2022/08/13 09:59:35;;;;;;;1.10;1.10;;;;;;;;;;5101580;28;20206;-61
2022/08/13 10:02:22;;;;;;;1.10;1.10;;;;;;;;;;5105415;28;20225;-61
2022/08/13 10:05:09;;;;;;;1.25;1.25;;;;;;;;;;5108116;28;20276;-61
2022/08/13 10:07:57;;;;;;;1.08;1.08;;;;;;;;;;5101233;28;20712;-62
2022/08/13 10:10:46;;;;;;;1.15;1.15;;;;;;;;;;5099129;28;20309;-61
2022/08/13 10:13:34;;;;;;;1.00;1.00;;;;;;;;;;5102236;28;20202;-62
2022/08/13 10:16:21;;;;;;;1.05;1.05;;;;;;;;;;5097089;28;20210;-62
2022/08/13 10:19:08;;;;;;;1.20;1.20;;;;;;;;;;5103858;28;20258;-62
2022/08/13 10:21:55;;;;;;;1.40;1.40;;;;;;;;;;5104439;28;20214;-62
2022/08/13 10:24:44;;;;;;;1.10;1.10;;;;;;;;;;5106605;28;20746;-62
2022/08/13 10:27:31;;;;;;;1.23;1.23;;;;;;;;;;5098452;28;20274;-62
2022/08/13 10:30:19;;;;;;;1.10;1.10;;;;;;;;;;5103216;28;20568;-62
2022/08/13 10:33:06;;;;;;;1.20;1.20;;;;;;;;;;5102754;28;20256;-62
2022/08/13 10:35:55;;;;;;;1.05;1.05;;;;;;;;;;5103118;28;20246;-62
2022/08/13 10:38:42;;;;;;;1.00;1.00;;;;;;;;;;5100103;28;20310;-62
2022/08/13 10:41:30;;;;;;;1.30;1.20;;;;;;;;;;5098694;28;20255;-62
2022/08/13 10:44:18;;;;;;;1.25;1.25;;;;;;;;;;5103157;28;20202;-62
2022/08/13 10:47:06;;;;;;;1.20;1.20;;;;;;;;;;5100841;28;20202;-62
2022/08/13 10:49:53;;;;;;;1.00;1.00;;;;;;;;;;5101218;28;20693;-63
2022/08/13 10:52:41;;;;;;;0.90;0.90;;;;;;;;;;5095677;28;20207;-62
2022/08/13 10:55:29;;;;;;;1.00;1.00;;;;;;;;;;5100106;28;20339;-62
2022/08/13 10:58:19;;;;;;;1.13;1.13;;;;;;;;;;5100413;28;20578;-62
2022/08/13 11:01:06;;;;;;;1.00;1.00;;;;;;;;;;5101100;28;20197;-62
2022/08/13 11:03:56;;;;;;;0.95;0.95;;;;;;;;;;5101863;28;20684;-62
2022/08/13 11:06:45;;;;;;;1.25;1.25;;;;;;;;;;5099393;28;20553;-62
2022/08/13 11:09:32;;;;;;;1.15;1.15;;;;;;;;;;5098913;28;20241;-62
2022/08/13 11:12:20;;;;;;;1.20;1.20;;;;;;;;;;5101040;28;20598;-62
2022/08/13 11:15:09;;;;;;;1.25;1.25;;;;;;;;;;5099752;28;20693;-62
2022/08/13 11:17:57;;;;;;;1.10;1.10;;;;;;;;;;5101933;28;20236;-62
2022/08/13 11:21:02;;;;;;;1.10;1.10;;;;;;;;;;5102519;28;20212;-62
2022/08/13 11:23:49;;;;;;;0.93;0.93;;;;;;;;;;5100383;28;20234;-62
2022/08/13 11:26:36;;;;;;;1.15;1.15;;;;;;;;;;5100740;28;20553;-62
2022/08/13 11:29:23;;;;;;;1.10;1.10;;;;;;;;;;5105294;28;20202;-62
2022/08/13 11:32:11;;;;;;;1.10;1.10;;;;;;;;;;5104649;28;20198;-62
2022/08/13 11:34:58;;;;;;;1.17;1.17;;;;;;;;;;5098908;28;20627;-62
2022/08/13 11:37:45;;;;;;;1.20;1.20;;;;;;;;;;5097844;28;20217;-63
2022/08/13 11:40:33;;;;;;;1.33;1.33;;;;;;;;;;5102802;28;20550;-62
2022/08/13 11:43:22;;;;;;;1.17;1.17;;;;;;;;;;5099273;28;20639;-62
2022/08/13 11:46:09;;;;;;;1.08;1.08;;;;;;;;;;5103712;28;20208;-62
2022/08/13 11:48:57;;;;;;;1.00;1.00;;;;;;;;;;5104612;28;20635;-62
2022/08/13 11:51:45;;;;;;;1.20;1.20;;;;;;;;;;5100745;28;20324;-63
2022/08/13 11:54:32;;;;;;;1.05;1.05;;;;;;;;;;5105477;28;20206;-62
2022/08/13 11:57:19;;;;;;;1.10;1.02;;;;;;;;;;5095887;28;20203;-63
2022/08/13 12:00:07;;;;;;;1.10;1.10;;;;;;;;;;5096427;28;20243;-64
2022/08/13 12:02:54;;;;;;;1.48;1.45;;;;;;;;;;5097655;28;20315;-63
2022/08/13 12:05:43;;;;;;;1.10;1.10;;;;;;;;;;5096498;28;20611;-62
2022/08/13 12:08:30;;;;;;;1.00;1.00;;;;;;;;;;5103918;28;20209;-62
2022/08/13 12:11:17;;;;;;;1.05;1.05;;;;;;;;;;5106875;28;20281;-63
2022/08/13 12:14:04;;;;;;;1.23;1.23;;;;;;;;;;5106048;28;20202;-63
2022/08/13 12:16:51;;;;;;;1.00;1.00;;;;;;;;;;5106475;28;20553;-63
2022/08/13 12:19:38;;;;;;;1.10;1.10;;;;;;;;;;5105166;28;20311;-62
2022/08/13 12:22:26;;;;;;;1.10;1.10;;;;;;;;;;5105863;28;20225;-62
2022/08/13 12:25:14;;;;;;;1.25;1.15;;;;;;;;;;5105245;28;20217;-62
2022/08/13 12:28:15;;;;;;;1.15;1.15;;;;;;;;;;5098489;28;20255;-62
2022/08/13 12:31:04;;;;;;;0.80;0.80;;;;;;;;;;5096825;28;20209;-62
2022/08/13 12:33:51;;;;;;;1.00;1.00;;;;;;;;;;5105635;28;20205;-63
2022/08/13 12:36:38;;;;;;;1.10;1.10;;;;;;;;;;5102573;28;20325;-62
2022/08/13 12:39:27;;;;;;;1.05;1.05;;;;;;;;;;5100273;28;20208;-62
2022/08/13 12:42:14;;;;;;;1.30;1.20;;;;;;;;;;5100680;28;20267;-61
2022/08/13 12:45:01;;;;;;;0.90;0.90;;;;;;;;;;5103837;28;20198;-61
2022/08/13 12:47:48;;;;;;;1.10;1.10;;;;;;;;;;5103983;28;20575;-61
2022/08/13 12:50:35;;;;;;;1.38;1.27;;;;;;;;;;5104607;28;20251;-61
2022/08/13 12:53:22;;;;;;;1.20;1.20;;;;;;;;;;5093407;28;20202;-61
2022/08/13 12:56:12;;;;;;;1.10;1.10;;;;;;;;;;5097878;28;20209;-62
2022/08/13 12:58:59;;;;;;;1.13;1.13;;;;;;;;;;5095384;28;20202;-62
2022/08/13 13:01:52;;;;;;;1.15;1.00;;;;;;;;;;5097375;28;20210;-62
2022/08/13 13:04:41;;;;;;;1.08;1.08;;;;;;;;;;5100771;28;20717;-62
2022/08/13 13:07:28;;;;;;;1.27;1.27;;;;;;;;;;5098529;28;20213;-62
2022/08/13 13:10:15;;;;;;;1.10;1.10;;;;;;;;;;5085597;28;20241;-62
2022/08/13 13:13:03;;;;;;;1.10;1.10;;;;;;;;;;5074949;28;20663;-62
2022/08/13 13:15:51;;;;;;;1.20;1.20;;;;;;;;;;5083385;28;20237;-62
2022/08/13 13:18:38;;;;;;;1.05;1.05;;;;;;;;;;5087531;28;20221;-62
2022/08/13 13:21:26;;;;;;;1.35;1.35;;;;;;;;;;5077223;28;20210;-62
2022/08/13 13:24:14;;;;;;;1.20;1.20;;;;;;;;;;5083039;28;20276;-62
2022/08/13 13:27:01;;;;;;;1.23;1.23;;;;;;;;;;5081105;28;20213;-61
2022/08/13 13:29:50;;;;;;;1.55;1.55;;;;;;;;;;5086344;28;20614;-61
2022/08/13 13:32:39;;;;;;;1.77;1.67;;;;;;;;;;5083264;28;21142;-61
2022/08/13 13:35:26;;;;;;;2.28;2.10;;;;;;;;;;5080210;28;20650;-61
2022/08/13 13:38:17;;;;;;;1.83;1.73;;;;;;;;;;5078466;28;20207;-61
2022/08/13 13:41:04;;;;;;;1.77;1.67;;;;;;;;;;5079321;28;20248;-62
2022/08/13 13:43:51;;;;;;;2.08;1.98;;;;;;;;;;5080803;28;20313;-62
2022/08/13 13:46:39;;;;;;;1.80;1.70;;;;;;;;;;5075136;28;20268;-62
2022/08/13 13:49:26;;;;;;;2.08;1.98;;;;;;;;;;5082634;28;20233;-62
2022/08/13 13:52:13;;;;;;;2.10;2.00;;;;;;;;;;5079415;28;20260;-62
2022/08/13 13:55:00;;;;;;;2.15;2.03;;;;;;;;;;5081759;28;20286;-62
2022/08/13 13:57:47;;;;;;;2.63;1.98;;;;;;;;;;5077980;28;20214;-62
2022/08/13 14:00:34;;;;;;;2.20;1.88;;;;;;;;;;5078420;28;20595;-62
2022/08/13 14:03:26;;;;;;;2.22;2.13;;;;;;;;;;5078061;28;20296;-62
2022/08/13 14:06:18;;;;;;;1.92;1.80;;;;;;;;;;5086301;28;20342;-61
2022/08/13 14:09:05;;;;;;;2.40;2.20;;;;;;;;;;5083050;28;20282;-62
2022/08/13 14:11:53;;;;;;;2.33;2.10;;;;;;;;;;5093161;28;20716;-61
2022/08/13 14:14:40;;;;;;;2.03;1.92;;;;;;;;;;5097255;28;20228;-61
2022/08/13 14:17:30;;;;;;;2.30;2.10;;;;;;;;;;5093102;28;20205;-62
2022/08/13 14:20:18;;;;;;;3.15;2.85;;;;;;;;;;5090003;28;20197;-62
2022/08/13 14:23:05;;;;;;;2.80;2.70;;;;;;;;;;5079425;28;20694;-62
2022/08/13 14:25:52;;;;;;;2.70;2.50;;;;;;;;;;5077907;28;20207;-62
2022/08/13 14:28:44;;;;;;;3.65;3.35;;;;;;;;;;5089443;28;20210;-62
2022/08/13 14:31:32;;;;;;;3.30;3.00;;;;;;;;;;5095233;28;20206;-62
2022/08/13 14:34:21;;;;;;;3.50;3.20;;;;;;;;;;5096149;28;20564;-62
2022/08/13 14:37:09;;;;;;;3.75;3.30;;;;;;;;;;5096694;28;20212;-62
2022/08/13 14:39:56;;;;;;;3.75;3.45;;;;;;;;;;5092875;28;20196;-62
2022/08/13 14:42:45;;;;;;;4.63;3.80;;;;;;;;;;5095471;28;20207;-62
2022/08/13 14:45:43;;;;;;;3.70;3.35;;;;;;;;;;5094750;28;20214;-62
2022/08/13 14:48:31;;;;;;;4.50;3.63;;;;;;;;;;5095356;28;20206;-62
2022/08/13 14:51:19;;;;;;;4.25;3.85;;;;;;;;;;5095677;28;20223;-62
2022/08/13 14:54:08;;;;;;;4.63;3.95;;;;;;;;;;5088284;28;20773;-62
2022/08/13 14:56:55;;;;;;;4.70;3.67;;;;;;;;;;5074072;28;20194;-62
2022/08/13 14:59:42;;;;;;;3.28;3.00;;;;;;;;;;5083890;28;20230;-62
2022/08/13 15:02:32;;;;;;;4.25;3.85;;;;;;;;;;5073587;28;20203;-62
2022/08/13 15:05:20;;;;;;;4.78;3.53;;;;;;;;;;5073282;28;20223;-62
2022/08/13 15:08:08;;;;;;;4.57;3.40;;;;;;;;;;5078343;28;20195;-62
2022/08/13 15:11:00;;;;;;;3.92;3.63;;;;;;;;;;5092830;28;20234;-62
2022/08/13 15:13:47;;;;;;;6.80;3.85;;;;;;;;;;5094200;28;20275;-62
2022/08/13 15:16:34;;;;;;;4.72;3.85;;;;;;;;;;5100198;28;20202;-62
2022/08/13 15:19:22;;;;;;;4.35;3.95;;;;;;;;;;5099595;28;20198;-62
2022/08/13 15:22:09;;;;;;;3.88;3.58;;;;;;;;;;5096811;28;20669;-62
2022/08/13 15:24:56;;;;;;;4.55;4.10;;;;;;;;;;5096457;28;20229;-62
2022/08/13 15:27:51;;;;;;;3.88;3.58;;;;;;;;;;5101754;28;20254;-61
2022/08/13 15:30:40;;;;;;;4.20;3.80;;;;;;;;;;5101176;28;20551;-61
2022/08/13 15:33:27;;;;;;;4.90;4.05;;;;;;;;;;5100857;28;20255;-62
2022/08/13 15:36:14;;;;;;;3.97;3.72;;;;;;;;;;5102492;28;20583;-62
2022/08/13 15:39:01;;;;;;;4.18;3.70;;;;;;;;;;5102803;28;20213;-62
2022/08/13 15:41:48;;;;;;;4.07;3.70;;;;;;;;;;5108157;28;20248;-61
2022/08/13 15:44:37;;;;;;;3.95;3.35;;;;;;;;;;5106285;28;20641;-62
2022/08/13 15:47:24;;;;;;;4.15;3.72;;;;;;;;;;5105792;28;20210;-62
2022/08/13 15:50:12;;;;;;;4.40;4.00;;;;;;;;;;5098883;28;20213;-62
2022/08/13 15:52:59;;;;;;;4.20;3.80;;;;;;;;;;5101170;28;20226;-62
2022/08/13 15:55:46;;;;;;;4.10;3.75;;;;;;;;;;5107905;28;20203;-62
2022/08/13 15:58:33;;;;;;;4.07;3.67;;;;;;;;;;5104199;28;20634;-62
2022/08/13 16:01:22;;;;;;;3.70;3.40;;;;;;;;;;5103808;28;20672;-62
2022/08/13 16:04:13;;;;;;;3.90;3.60;;;;;;;;;;5103754;28;20597;-61
2022/08/13 16:07:02;;;;;;;4.03;3.72;;;;;;;;;;5105880;28;20230;-61
2022/08/13 16:09:49;;;;;;;4.07;3.67;;;;;;;;;;5101134;28;20320;-62
2022/08/13 16:12:36;;;;;;;3.75;3.45;;;;;;;;;;5106111;28;20206;-61
2022/08/13 16:15:24;;;;;;;4.18;3.80;;;;;;;;;;5097017;28;20354;-62
2022/08/13 16:18:14;;;;;;;3.92;3.63;;;;;;;;;;5099203;28;20209;-62
2022/08/13 16:21:01;;;;;;;3.65;3.30;;;;;;;;;;5101701;28;20224;-62
2022/08/13 16:23:48;;;;;;;4.18;3.78;;;;;;;;;;5100455;28;20267;-61
2022/08/13 16:26:36;;;;;;;4.82;3.58;;;;;;;;;;5102323;28;20228;-62
2022/08/13 16:29:24;;;;;;;3.60;3.30;;;;;;;;;;5098462;28;20207;-62
2022/08/13 16:32:11;;;;;;;3.58;3.33;;;;;;;;;;5102020;28;20198;-62
2022/08/13 16:35:00;;;;;;;3.95;3.65;;;;;;;;;;5098125;28;20429;-62
2022/08/13 16:37:56;;;;;;;4.43;3.92;;;;;;;;;;5100765;28;20210;-61
2022/08/13 16:40:51;;;;;;;4.00;3.70;;;;;;;;;;5094540;28;20301;-62
2022/08/13 16:43:40;;;;;;;3.53;3.30;;;;;;;;;;5099283;28;20683;-62
2022/08/13 16:46:31;;;;;;;3.95;3.33;;;;;;;;;;5096774;28;20231;-61
2022/08/13 16:49:21;;;;;;;3.50;3.20;;;;;;;;;;5095849;28;20202;-62
2022/08/13 16:52:09;;;;;;;3.72;3.42;;;;;;;;;;5096875;28;20248;-62
2022/08/13 16:54:56;;;;;;;3.58;3.28;;;;;;;;;;5095646;28;20202;-62
2022/08/13 16:57:45;;;;;;;3.67;3.38;;;;;;;;;;5094729;28;20548;-62
2022/08/13 17:00:33;;;;;;;3.38;3.17;;;;;;;;;;5097747;28;20202;-62
2022/08/13 17:09:31;;;;;;;3.25;3.05;;;;;;;;;;5100674;28;20241;-62